To NAV CANADA Home Page Login to a new session Search on AWWS site Feedback and Comments Disclaimer Vers la page française équivalente Tips FAQ What's new on the site To the Forecasts and Observations / NOTAM section To "File a Flight Plan" website Publications and other links Update of the User's profile FIC Telephone Numbers My Weather Data Folder Route Weather Data Regional Weather Data Local Weather Data To the Forecasts and Observations / NOTAM section
Request Generated 08/22/2017 at 03:29:16 UTC . Weather information available at that time is displayed.

METAR/TAF

RANKIN INLET/NU    

METAR CYRT 220300Z 27007KT 15SM FEW250 09/M03 A3002 RMK CI2 SLP170=
METAR CYRT 220200Z 28006KT 15SM FEW250 08/00 A3003 RMK CI2 SLP172=
METAR CYRT 220100Z 26004KT 180V280 15SM FEW250 09/M00 A3003 RMK CI2
SLP173=

TAF CYRT 212338Z 2200/2212 14010KT P6SM FEW250
BECMG 2204/2206 32010KT
RMK NXT FCST BY 220600Z=
Your time UTC time
Weather data provided by Environment Canada and NAV CANADA